HomeShort term forecast

Short term forecast

Graphical weather forecast for the next 48 hours for Montreal:
Short term forecast
This weather forecast is automatically refreshed every 3 hours.

Hourly Experimental Forecast for the next 48 hours

Overall summary: Light rain until this afternoon.

 Date & Hour   Temp   Feel   Baro   Hum   Speed & Bearing   Wind Gust   Precip.%   Precip.   Visibility   Cloud cover   Conditions 
 22/07/2018 - 11:00  20.8°C  20.8°C  1017.8 hPa  57%  11.8 km/h   28.2 km/h  18%  0.91 mm/h  16.1km  100%  Possible Light Rain 
 22/07/2018 - 12:00  21.3°C  21.3°C  1017.5 hPa  58%  15.5 km/h   31.4 km/h  28%  0.81 mm/h  16.1km  100%  Possible Light Rain 
 22/07/2018 - 13:00  21.3°C  21.3°C  1017.1 hPa  61%  19.0 km/h   34.8 km/h  40%  1.09 mm/h  16.1km  99%  Light Rain 
 22/07/2018 - 14:00  21.3°C  21.3°C  1016.9 hPa  65%  20.2 km/h   38.2 km/h  39%  0.82 mm/h  16.1km  96%  Light Rain 
 22/07/2018 - 15:00  21.3°C  21.5°C  1016.8 hPa  76%  20.0 km/h   38.1 km/h  37%  0.58 mm/h  16.1km  95%  Overcast 
 22/07/2018 - 16:00  22.5°C  22.8°C  1016.6 hPa  77%  19.2 km/h   34.0 km/h  13%  0.09 mm/h  16.1km  100%  Overcast 
 22/07/2018 - 17:00  23.9°C  24.3°C  1016.4 hPa  74%  17.5 km/h   31.1 km/h  5%  0.01 mm/h  16.1km  98%  Overcast 
 22/07/2018 - 18:00  24.7°C  25.1°C  1016.3 hPa  72%  16.3 km/h   28.4 km/h  2%  0.01 mm/h  16.1km  97%  Overcast 
 22/07/2018 - 19:00  24.7°C  25.2°C  1016.3 hPa  74%  15.1 km/h   27.0 km/h  3%  0.01 mm/h  16.1km  82%  Mostly Cloudy 
 22/07/2018 - 20:00  24.2°C  24.7°C  1016.5 hPa  77%  12.4 km/h   25.4 km/h  3%  0.01 mm/h  16.1km  73%  Mostly Cloudy 
 22/07/2018 - 21:00  23.5°C  24.0°C  1017.0 hPa  80%  10.3 km/h   21.8 km/h  3%  0.06 mm/h  16.1km  73%  Mostly Cloudy 
 22/07/2018 - 22:00  22.8°C  23.3°C  1017.5 hPa  83%  9.9 km/h   22.7 km/h  4%  0.11 mm/h  16.1km  52%  Partly Cloudy 
 22/07/2018 - 23:00  22.3°C  22.8°C  1017.9 hPa  85%  9.7 km/h   23.2 km/h  6%  0.16 mm/h  16.1km  46%  Partly Cloudy 
 23/07/2018 - 00:00  21.6°C  22.1°C  1018.1 hPa  88%  9.7 km/h   24.3 km/h  9%  0.13 mm/h  16.1km  55%  Partly Cloudy 
 23/07/2018 - 01:00  21.3°C  21.7°C  1018.1 hPa  88%  9.2 km/h   22.0 km/h  5%  0.06 mm/h  16.1km  82%  Mostly Cloudy 
 23/07/2018 - 02:00  20.9°C  21.4°C  1018.0 hPa  89%  8.9 km/h   20.0 km/h  4%  0.06 mm/h  16.1km  81%  Mostly Cloudy 
 23/07/2018 - 03:00  20.5°C  20.9°C  1018.0 hPa  91%  8.5 km/h   18.4 km/h  4%  0.05 mm/h  16.1km  78%  Mostly Cloudy 
 23/07/2018 - 04:00  20.1°C  20.6°C  1018.0 hPa  92%  8.3 km/h   17.2 km/h  5%  0.11 mm/h  16.1km  87%  Mostly Cloudy 
 23/07/2018 - 05:00  20.1°C  20.6°C  1018.0 hPa  92%  8.1 km/h   17.0 km/h  6%  0.18 mm/h  16.1km  84%  Mostly Cloudy 
 23/07/2018 - 06:00  20.4°C  21.0°C  1018.3 hPa  92%  8.3 km/h   18.6 km/h  4%  0.11 mm/h  16.1km  84%  Mostly Cloudy 
 23/07/2018 - 07:00  21.5°C  22.0°C  1018.7 hPa  90%  9.1 km/h   21.4 km/h  2%  0.02 mm/h  16.1km  90%  Mostly Cloudy 
 23/07/2018 - 08:00  22.8°C  23.3°C  1019.0 hPa  86%  10.2 km/h   23.5 km/h  0%  --  16.1km  94%  Overcast 
 23/07/2018 - 09:00  24.3°C  24.9°C  1019.2 hPa  81%  11.8 km/h   24.3 km/h  0%  --  16.1km  98%  Overcast 
 23/07/2018 - 10:00  25.9°C  26.6°C  1019.4 hPa  76%  13.2 km/h   24.6 km/h  0%  --  16.1km  98%  Overcast 
 23/07/2018 - 11:00  27.8°C  30.2°C  1019.5 hPa  69%  14.8 km/h   24.9 km/h  2%  0.01 mm/h  16.1km  96%  Overcast 
 23/07/2018 - 12:00  29.0°C  31.8°C  1019.4 hPa  65%  15.9 km/h   24.9 km/h  2%  0.02 mm/h  16.1km  92%  Mostly Cloudy 
 23/07/2018 - 13:00  29.9°C  33.0°C  1019.1 hPa  62%  16.5 km/h   24.7 km/h  3%  0.05 mm/h  16.1km  87%  Mostly Cloudy 
 23/07/2018 - 14:00  30.5°C  33.7°C  1018.8 hPa  60%  17.3 km/h   25.1 km/h  4%  0.11 mm/h  16.1km  84%  Mostly Cloudy 
 23/07/2018 - 15:00  30.8°C  34.1°C  1018.5 hPa  59%  18.8 km/h   26.1 km/h  5%  0.14 mm/h  16.1km  81%  Mostly Cloudy 
 23/07/2018 - 16:00  30.8°C  34.2°C  1018.3 hPa  59%  20.1 km/h   27.6 km/h  6%  0.19 mm/h  16.1km  85%  Mostly Cloudy 
 23/07/2018 - 17:00  30.3°C  33.5°C  1018.1 hPa  60%  20.8 km/h   30.0 km/h  7%  0.24 mm/h  16.1km  86%  Mostly Cloudy 
 23/07/2018 - 18:00  29.6°C  32.6°C  1018.3 hPa  63%  20.9 km/h   34.0 km/h  9%  0.17 mm/h  16.1km  89%  Mostly Cloudy 
 23/07/2018 - 19:00  28.6°C  31.2°C  1018.7 hPa  65%  20.7 km/h   39.0 km/h  11%  0.06 mm/h  16.1km  92%  Mostly Cloudy 
 23/07/2018 - 20:00  27.4°C  29.5°C  1018.9 hPa  70%  20.0 km/h   42.5 km/h  15%  0.02 mm/h  16.1km  93%  Mostly Cloudy 
 23/07/2018 - 21:00  26.5°C  28.2°C  1019.3 hPa  73%  18.7 km/h   43.3 km/h  15%  0.02 mm/h  16.1km  89%  Mostly Cloudy 
 23/07/2018 - 22:00  25.7°C  26.3°C  1019.5 hPa  76%  17.0 km/h   42.7 km/h  15%  0.07 mm/h  16.1km  80%  Mostly Cloudy 
 23/07/2018 - 23:00  25.1°C  25.7°C  1019.7 hPa  78%  16.4 km/h   42.3 km/h  14%  0.16 mm/h  16.0km  77%  Mostly Cloudy 
 24/07/2018 - 00:00  24.7°C  25.3°C  1019.8 hPa  80%  16.9 km/h   42.9 km/h  11%  0.27 mm/h  14.9km  83%  Mostly Cloudy 
 24/07/2018 - 01:00  24.3°C  25.0°C  1019.6 hPa  81%  17.4 km/h   43.7 km/h  10%  0.43 mm/h  14.6km  89%  Mostly Cloudy 
 24/07/2018 - 02:00  24.0°C  24.7°C  1019.6 hPa  83%  17.8 km/h   44.0 km/h  12%  0.57 mm/h  14.6km  92%  Mostly Cloudy 
 24/07/2018 - 03:00  23.5°C  24.1°C  1019.7 hPa  85%  17.1 km/h   43.4 km/h  15%  0.61 mm/h  15.1km  92%  Mostly Cloudy 
 24/07/2018 - 04:00  22.9°C  23.5°C  1019.8 hPa  88%  16.3 km/h   42.5 km/h  16%  0.57 mm/h  16.0km  90%  Mostly Cloudy 
 24/07/2018 - 05:00  22.5°C  23.2°C  1019.8 hPa  90%  16.1 km/h   42.1 km/h  15%  0.46 mm/h  16.1km  89%  Mostly Cloudy 
 24/07/2018 - 06:00  22.5°C  23.2°C  1019.9 hPa  91%  16.8 km/h   43.0 km/h  15%  0.35 mm/h  16.1km  91%  Mostly Cloudy 
 24/07/2018 - 07:00  23.0°C  23.7°C  1020.1 hPa  88%  18.1 km/h   44.4 km/h  17%  0.30 mm/h  15.3km  93%  Mostly Cloudy 
 24/07/2018 - 08:00  23.7°C  24.4°C  1020.2 hPa  85%  18.9 km/h   44.9 km/h  15%  0.32 mm/h  15.1km  95%  Overcast 
 24/07/2018 - 09:00  24.3°C  24.9°C  1020.2 hPa  83%  19.2 km/h   43.9 km/h  12%  0.24 mm/h  15.8km  95%  Overcast 
 24/07/2018 - 10:00  25.0°C  25.7°C  1020.2 hPa  79%  19.1 km/h   42.1 km/h  10%  0.19 mm/h  16.1km  94%  Overcast 
Test

 

Past weather and reports

Past weatherFind in this section the past weather conditions, weather archive, graphics, reports and statistics.

Current conditions

Current weather condition for MontrealAll you need to know about the current weather conditions for Montreal. Weather data is updated every 10 minutes.

Weather forecast

Current Montreal weatherSince 2004, celinium.com website has provided accurate weather forecast for Montreal's island.